CheckWX is a tool to help pilots better visualize weather data.  It is not intended as a substitute for an official pre-flight weather briefing.

20:50:31 UTC

KMSL TAF
Northwest Alabama Regional Airport
Muscle Shoals, Alabama, USA
KMSL 161740Z 1618/1718 23010G18KT P6SM VCTS BKN040CB FM162300 20008KT P6SM VCTS SCT040CB SCT250 FM170300 19006KT P6SM BKN035 BKN080 OVC200 FM170800 18004KT P6SM BKN080

Jun-16@
18:00 UTC

Jun-16 @ 18:00 UTC

Jun-16@
23:00 UTC

Jun-16 @ 23:00 UTC

KMSL 161740Z 1618/1718 23010G18KT P6SM VCTS BKN040CB
Wind
  • 230° at 10 KTS
  • {Gusting to 18 KTS
Conditions
Area Thunderstorm
Cloud Levels
  • Broken at 4,000' AGL

Jun-16@
23:00 UTC

Jun-16 @ 23:00 UTC

Jun-17@
03:00 UTC

Jun-17 @ 03:00 UTC

FM162300 20008KT P6SM VCTS SCT040CB SCT250

From

From Standard forecast or significant change

Wind
  • 200° at 8 KTS
Conditions
Area Thunderstorm
Cloud Levels
  • Scattered at 4,000' AGL
  • Scattered at 25,000' AGL

Jun-17@
03:00 UTC

Jun-17 @ 03:00 UTC

Jun-17@
08:00 UTC

Jun-17 @ 08:00 UTC

FM170300 19006KT P6SM BKN035 BKN080 OVC200

From

From Standard forecast or significant change

Wind
  • 190° at 6 KTS
Cloud Levels
  • Broken at 3,500' AGL
  • Broken at 8,000' AGL
  • Overcast at 20,000' AGL

Jun-17@
08:00 UTC

Jun-17 @ 08:00 UTC

Jun-17@
18:00 UTC

Jun-17 @ 18:00 UTC

FM170800 18004KT P6SM BKN080

From

From Standard forecast or significant change

Wind
  • 180° at 4 KTS
Cloud Levels
  • Broken at 8,000' AGL